CZ-0142 weather

Zbilidy UL
Vysočina Region, Czechia

Public forecast

Using degrees Celsius for public forecast. Weather courtesy of forecast.io.

METAR (pilot weather report)

Closest report is Čáslav Air Base, 29.6 nm (54.8 km) N. Retrieved 2019/07/22 08:00 UTC (49 minutes ago):

LKCV 220800Z VRB02KT 9999 FEW020 SCT220 22/17 Q1024 NOSIG RMK BLU BLU

TAF (pilot weather forecast)

Closest forecast is Čáslav Air Base, 29.6 nm (54.8 km) N. Retrieved 2019/07/22 06:00 UTC (3 hours ago):

TAF LKCV 220500Z 2206/2306 VRB02KT CAVOK BECMG 2208/2210 SCT040 TEMPO 2210/2220 29006KT BECMG 2214/2216 CAVOK